createdAt,value
2018-04-26T00:00:55.018Z,0.00
2018-04-26T00:01:54.915Z,0.00
2018-04-26T00:02:54.810Z,0.00
2018-04-26T00:03:54.708Z,0.00
2018-04-26T00:04:54.616Z,0.00
2018-04-26T00:05:54.516Z,0.00
2018-04-26T00:06:54.409Z,0.00
2018-04-26T00:07:54.306Z,0.00
2018-04-26T00:08:54.202Z,0.00
2018-04-26T00:09:54.112Z,0.00
2018-04-26T00:10:54.010Z,0.00
2018-04-26T00:11:53.906Z,0.00
2018-04-26T00:12:53.804Z,0.00
2018-04-26T00:13:53.700Z,0.00
2018-04-26T00:14:53.607Z,0.00
2018-04-26T00:15:53.506Z,0.00
2018-04-26T00:16:53.401Z,0.00
2018-04-26T00:17:53.298Z,0.00
2018-04-26T00:18:53.195Z,0.00
2018-04-26T00:19:53.093Z,0.00
2018-04-26T00:20:53.001Z,0.00
2018-04-26T00:21:52.898Z,0.00
2018-04-26T00:22:52.794Z,0.00
2018-04-26T00:23:52.691Z,0.00
2018-04-26T00:24:52.588Z,0.00
2018-04-26T00:25:52.485Z,0.00
2018-04-26T00:26:52.392Z,0.00
2018-04-26T00:27:52.290Z,0.00
2018-04-26T00:28:52.186Z,0.00
2018-04-26T00:29:52.082Z,0.00
2018-04-26T00:30:51.980Z,0.00
2018-04-26T00:31:51.878Z,0.00
2018-04-26T00:32:51.785Z,0.00
2018-04-26T00:33:51.683Z,0.00
2018-04-26T00:34:51.579Z,0.00
2018-04-26T00:35:51.477Z,0.00
2018-04-26T00:36:51.381Z,0.00
2018-04-26T00:37:51.281Z,0.00
2018-04-26T00:38:51.178Z,0.00
2018-04-26T00:39:51.075Z,0.00
2018-04-26T00:40:50.971Z,0.00
2018-04-26T00:41:50.868Z,0.00
2018-04-26T00:42:50.765Z,0.00
2018-04-26T00:43:50.661Z,0.00
2018-04-26T00:44:50.571Z,0.00
2018-04-26T00:45:50.468Z,0.00
2018-04-26T00:46:50.365Z,0.00
2018-04-26T00:47:50.261Z,0.00
2018-04-26T00:48:50.159Z,0.00
2018-04-26T00:49:50.066Z,0.00
2018-04-26T00:50:49.963Z,0.00
2018-04-26T00:51:49.860Z,0.00
2018-04-26T00:52:50.006Z,0.00
2018-04-26T00:53:49.655Z,0.00
2018-04-26T00:54:49.563Z,0.00
2018-04-26T00:55:49.447Z,0.00
2018-04-26T00:56:49.343Z,0.00
2018-04-26T00:57:49.253Z,0.00
2018-04-26T00:58:49.149Z,0.00
2018-04-26T00:59:49.046Z,0.00
2018-04-26T01:00:48.944Z,0.00
2018-04-26T01:01:48.840Z,0.00
2018-04-26T01:02:48.737Z,0.00
2018-04-26T01:03:48.633Z,0.00
2018-04-26T01:04:48.542Z,0.00
2018-04-26T01:05:48.438Z,0.00
2018-04-26T01:06:48.334Z,0.00
2018-04-26T01:07:48.231Z,0.00
2018-04-26T01:08:48.128Z,0.00
2018-04-26T01:09:48.025Z,0.00
2018-04-26T01:10:47.922Z,0.00
2018-04-26T01:11:47.819Z,0.00
2018-04-26T01:12:47.728Z,0.00
2018-04-26T01:13:47.625Z,0.00
2018-04-26T01:14:47.523Z,0.00
2018-04-26T01:15:47.419Z,0.00
2018-04-26T01:16:47.316Z,0.00
2018-04-26T01:17:47.214Z,0.00
2018-04-26T01:18:47.109Z,0.00
2018-04-26T01:19:47.005Z,0.00
2018-04-26T01:20:46.916Z,0.00
2018-04-26T01:21:46.810Z,0.00
2018-04-26T01:22:47.008Z,0.00
2018-04-26T01:23:46.603Z,0.00
2018-04-26T01:24:46.500Z,0.00
2018-04-26T01:25:46.398Z,0.00
2018-04-26T01:26:46.295Z,0.00
2018-04-26T01:27:46.194Z,0.00
2018-04-26T01:28:46.100Z,0.00
2018-04-26T01:29:45.997Z,0.00
2018-04-26T01:30:45.893Z,0.00
2018-04-26T01:31:45.791Z,0.00
2018-04-26T01:32:45.698Z,0.00
2018-04-26T01:33:45.584Z,0.00
2018-04-26T01:34:45.480Z,0.00
2018-04-26T01:35:45.378Z,0.00
2018-04-26T01:36:45.276Z,0.00
2018-04-26T01:37:45.182Z,0.00
2018-04-26T01:38:45.080Z,0.00
2018-04-26T01:39:44.977Z,0.00
2018-04-26T01:40:44.872Z,0.00
2018-04-26T01:41:44.773Z,0.00
2018-04-26T01:42:44.666Z,0.00
2018-04-26T01:43:44.562Z,0.00
2018-04-26T01:44:44.463Z,0.00
2018-04-26T01:45:44.356Z,0.00
2018-04-26T01:46:44.253Z,0.00
2018-04-26T01:47:44.155Z,0.00
2018-04-26T01:48:44.060Z,0.00
2018-04-26T01:49:43.956Z,0.00
2018-04-26T01:50:43.853Z,0.00
2018-04-26T01:51:43.750Z,0.00
2018-04-26T01:52:43.645Z,0.00
2018-04-26T01:53:43.543Z,0.00
2018-04-26T01:54:43.439Z,0.00
2018-04-26T01:55:43.336Z,0.00
2018-04-26T01:56:43.233Z,0.00
2018-04-26T01:57:43.131Z,0.00
2018-04-26T01:58:43.038Z,0.00
2018-04-26T01:59:42.938Z,0.00
2018-04-26T02:00:42.832Z,0.00
2018-04-26T02:01:42.728Z,0.00
2018-04-26T02:02:42.638Z,0.00
2018-04-26T02:03:42.523Z,0.00
2018-04-26T02:04:42.418Z,0.00
2018-04-26T02:05:42.315Z,0.00
2018-04-26T02:06:42.211Z,0.00
2018-04-26T02:07:42.108Z,0.00
2018-04-26T02:08:42.005Z,0.00
2018-04-26T02:09:41.904Z,0.00
2018-04-26T02:10:41.811Z,0.00
2018-04-26T02:11:41.708Z,0.00
2018-04-26T02:12:41.605Z,0.00
2018-04-26T02:13:41.502Z,0.00
2018-04-26T02:14:41.399Z,0.00
2018-04-26T02:15:41.302Z,0.00
2018-04-26T02:16:41.191Z,0.00
2018-04-26T02:17:41.088Z,0.00
2018-04-26T02:18:40.985Z,0.00
2018-04-26T02:19:40.882Z,0.00
2018-04-26T02:20:40.779Z,0.00
2018-04-26T02:21:40.676Z,0.00
2018-04-26T02:22:40.823Z,0.00
2018-04-26T02:23:40.470Z,0.00
2018-04-26T02:24:40.381Z,0.00
2018-04-26T02:25:40.275Z,0.00
2018-04-26T02:26:40.170Z,0.00
2018-04-26T02:27:40.067Z,0.00
2018-04-26T02:28:39.963Z,0.00
2018-04-26T02:29:39.865Z,0.00
2018-04-26T02:30:39.757Z,0.00
2018-04-26T02:31:39.653Z,0.00
2018-04-26T02:32:39.551Z,0.00
2018-04-26T02:33:39.447Z,0.00
2018-04-26T02:34:39.345Z,0.00
2018-04-26T02:35:39.241Z,0.00
2018-04-26T02:36:39.137Z,0.00
2018-04-26T02:37:39.039Z,0.00
2018-04-26T02:38:38.944Z,0.00
2018-04-26T02:39:38.841Z,0.00
2018-04-26T02:40:38.738Z,0.00
2018-04-26T02:41:38.635Z,0.00
2018-04-26T02:42:38.531Z,0.00
2018-04-26T02:43:38.433Z,0.00
2018-04-26T02:44:38.324Z,0.00
2018-04-26T02:45:38.221Z,0.00
2018-04-26T02:46:38.117Z,0.00
2018-04-26T02:47:38.014Z,0.00
2018-04-26T02:48:37.926Z,0.00
2018-04-26T02:49:37.808Z,0.00
2018-04-26T02:50:37.705Z,0.00
2018-04-26T02:51:37.601Z,0.00
2018-04-26T02:52:37.497Z,0.00
2018-04-26T02:53:37.414Z,0.00
2018-04-26T02:54:37.302Z,0.00
2018-04-26T02:55:37.199Z,0.00
2018-04-26T02:56:37.111Z,0.00
2018-04-26T02:57:36.992Z,0.00
2018-04-26T02:58:36.890Z,0.00
2018-04-26T02:59:36.786Z,0.00
2018-04-26T03:00:36.696Z,0.00
2018-04-26T03:01:36.579Z,0.00
2018-04-26T03:02:36.476Z,0.00
2018-04-26T03:03:36.373Z,0.00
2018-04-26T03:04:36.270Z,0.00
2018-04-26T03:05:36.169Z,0.00
2018-04-26T03:06:36.062Z,0.00
2018-04-26T03:07:35.960Z,0.00
2018-04-26T03:08:35.863Z,0.00
2018-04-26T03:09:35.765Z,4.00
2018-04-26T03:10:35.664Z,4.00
2018-04-26T03:11:35.559Z,4.00
2018-04-26T03:12:35.455Z,0.00
2018-04-26T03:13:35.353Z,4.00
2018-04-26T03:14:35.249Z,4.00
2018-04-26T03:15:35.145Z,4.00
2018-04-26T03:16:35.042Z,4.00
2018-04-26T03:17:34.940Z,8.00
2018-04-26T03:18:34.846Z,8.00
2018-04-26T03:19:34.732Z,8.00
2018-04-26T03:20:34.634Z,8.00
2018-04-26T03:21:34.539Z,8.00
2018-04-26T03:22:34.435Z,12.00
2018-04-26T03:23:34.349Z,12.00
2018-04-26T03:24:34.228Z,16.00
2018-04-26T03:25:34.124Z,16.00
2018-04-26T03:26:34.020Z,24.00
2018-04-26T03:27:33.917Z,24.00
2018-04-26T03:28:33.813Z,28.00
2018-04-26T03:29:33.710Z,32.00
2018-04-26T03:30:33.608Z,36.00
2018-04-26T03:31:33.513Z,40.00
2018-04-26T03:32:33.400Z,48.00
2018-04-26T03:33:33.297Z,56.00
2018-04-26T03:34:33.195Z,64.00
2018-04-26T03:35:33.091Z,72.00
2018-04-26T03:36:32.989Z,76.00
2018-04-26T03:37:32.899Z,84.00
2018-04-26T03:38:32.793Z,96.00
2018-04-26T03:39:32.692Z,108.00
2018-04-26T03:40:32.590Z,120.00
2018-04-26T03:41:32.484Z,132.00
2018-04-26T03:42:32.381Z,144.00
2018-04-26T03:43:32.278Z,160.00
2018-04-26T03:44:32.177Z,176.00
2018-04-26T03:45:32.074Z,196.00
2018-04-26T03:46:31.967Z,216.00
2018-04-26T03:47:31.863Z,232.00
2018-04-26T03:48:31.761Z,248.00
2018-04-26T03:49:31.658Z,264.00
2018-04-26T03:50:31.555Z,276.00
2018-04-26T03:51:31.451Z,300.00
2018-04-26T03:52:31.347Z,332.00
2018-04-26T03:53:31.244Z,356.00
2018-04-26T03:54:31.153Z,376.00
2018-04-26T03:55:31.084Z,400.00
2018-04-26T03:56:30.947Z,428.00
2018-04-26T03:57:31.143Z,452.00
2018-04-26T03:58:30.755Z,480.00
2018-04-26T03:59:30.637Z,524.00
2018-04-26T04:00:30.533Z,536.00
2018-04-26T04:01:30.442Z,552.00
2018-04-26T04:02:30.327Z,588.00
2018-04-26T04:03:30.223Z,664.00
2018-04-26T04:04:30.120Z,752.00
2018-04-26T04:05:30.019Z,788.00
2018-04-26T04:06:29.914Z,816.00
2018-04-26T04:07:29.810Z,864.00
2018-04-26T04:08:29.707Z,924.00
2018-04-26T04:09:29.603Z,976.00
2018-04-26T04:10:29.501Z,1060.00
2018-04-26T04:11:29.397Z,1112.00
2018-04-26T04:12:29.306Z,1120.00
2018-04-26T04:13:29.204Z,1120.00
2018-04-26T04:14:29.101Z,936.00
2018-04-26T04:15:28.996Z,816.00
2018-04-26T04:16:28.894Z,748.00
2018-04-26T04:17:29.041Z,712.00
2018-04-26T04:18:28.686Z,732.00
2018-04-26T04:19:28.583Z,740.00
2018-04-26T04:20:28.479Z,704.00
2018-04-26T04:21:28.380Z,688.00
2018-04-26T04:22:28.275Z,708.00
2018-04-26T04:23:28.182Z,788.00
2018-04-26T04:24:28.078Z,864.00
2018-04-26T04:25:27.975Z,936.00
2018-04-26T04:26:27.872Z,976.00
2018-04-26T04:27:27.769Z,1144.00
2018-04-26T04:28:27.665Z,1316.00
2018-04-26T04:29:27.562Z,1364.00
2018-04-26T04:30:27.509Z,1468.00
2018-04-26T04:31:27.369Z,1684.00
2018-04-26T04:32:27.265Z,1936.00
2018-04-26T04:33:27.163Z,2216.00
2018-04-26T04:34:27.059Z,2624.00
2018-04-26T04:35:26.955Z,2792.00
2018-04-26T04:36:26.857Z,2872.00
2018-04-26T04:37:26.749Z,2936.00
2018-04-26T04:38:26.659Z,2952.00
2018-04-26T04:39:26.554Z,2936.00
2018-04-26T04:40:26.450Z,3020.00
2018-04-26T04:41:26.348Z,3088.00
2018-04-26T04:42:26.250Z,3196.00
2018-04-26T04:43:26.156Z,3300.00
2018-04-26T04:44:26.052Z,3356.00
2018-04-26T04:45:25.947Z,3408.00
2018-04-26T04:46:25.844Z,3476.00
2018-04-26T04:47:25.741Z,3568.00
2018-04-26T04:48:25.638Z,3664.00
2018-04-26T04:49:25.548Z,3968.00
2018-04-26T04:50:25.455Z,4068.00
2018-04-26T04:51:25.354Z,4272.00
2018-04-26T04:52:25.235Z,4500.00
2018-04-26T04:53:25.132Z,4456.00
2018-04-26T04:54:25.030Z,4284.00
2018-04-26T04:55:24.939Z,4224.00
2018-04-26T04:56:24.837Z,4176.00
2018-04-26T04:57:24.735Z,3532.00
2018-04-26T04:58:24.630Z,3080.00
2018-04-26T04:59:24.538Z,3332.00
2018-04-26T05:00:24.447Z,3604.00
2018-04-26T05:01:24.335Z,3484.00
2018-04-26T05:02:24.228Z,3260.00
2018-04-26T05:03:24.126Z,2992.00
2018-04-26T05:04:24.034Z,2772.00
2018-04-26T05:05:23.931Z,2492.00
2018-04-26T05:06:23.828Z,2088.00
2018-04-26T05:07:23.841Z,2120.00
2018-04-26T05:08:23.634Z,2484.00
2018-04-26T05:09:23.543Z,2648.00
2018-04-26T05:10:23.440Z,2816.00
2018-04-26T05:11:23.336Z,2844.00
2018-04-26T05:12:23.233Z,2856.00
2018-04-26T05:13:23.130Z,2236.00
2018-04-26T05:14:23.039Z,1588.00
2018-04-26T05:15:22.935Z,1364.00
2018-04-26T05:16:22.837Z,1164.00
2018-04-26T05:17:22.742Z,1184.00
2018-04-26T05:18:22.638Z,1288.00
2018-04-26T05:19:22.535Z,1552.00
2018-04-26T05:20:22.432Z,1840.00
2018-04-26T05:21:22.340Z,1992.00
2018-04-26T05:22:22.250Z,1744.00
2018-04-26T05:23:22.133Z,1656.00
2018-04-26T05:24:22.044Z,1624.00
2018-04-26T05:25:21.941Z,1936.00
2018-04-26T05:26:21.836Z,2040.00
2018-04-26T05:27:21.734Z,2116.00
2018-04-26T05:28:21.642Z,2356.00
2018-04-26T05:29:21.539Z,2476.00
2018-04-26T05:30:21.448Z,2520.00
2018-04-26T05:31:21.352Z,2764.00
2018-04-26T05:32:21.241Z,3232.00
2018-04-26T05:33:21.139Z,3640.00
2018-04-26T05:34:21.036Z,3884.00
2018-04-26T05:35:20.944Z,3892.00
2018-04-26T05:36:20.840Z,3796.00
2018-04-26T05:37:20.737Z,3684.00
2018-04-26T05:38:20.633Z,3556.00
2018-04-26T05:39:20.543Z,3316.00
2018-04-26T05:40:20.441Z,3224.00
2018-04-26T05:41:20.337Z,3480.00
2018-04-26T05:42:20.233Z,4132.00
2018-04-26T05:43:20.131Z,4696.00
2018-04-26T05:44:20.038Z,5184.00
2018-04-26T05:45:19.935Z,5792.00
2018-04-26T05:46:19.832Z,6596.00
2018-04-26T05:47:19.806Z,6612.00
2018-04-26T05:48:19.639Z,5984.00
2018-04-26T05:49:19.535Z,5712.00
2018-04-26T05:50:19.431Z,5844.00
2018-04-26T05:51:19.340Z,6176.00
2018-04-26T05:52:19.237Z,6296.00
2018-04-26T05:53:19.134Z,6760.00
2018-04-26T05:54:19.032Z,6972.00
2018-04-26T05:55:18.941Z,7560.00
2018-04-26T05:56:18.841Z,7788.00
2018-04-26T05:57:19.039Z,7728.00
2018-04-26T05:58:18.643Z,7820.00
2018-04-26T05:59:18.540Z,7916.00
2018-04-26T06:00:18.508Z,8080.00
2018-04-26T06:01:18.334Z,8036.00
2018-04-26T06:02:18.244Z,7696.00
2018-04-26T06:03:18.143Z,7448.00
2018-04-26T06:04:18.036Z,7472.00
2018-04-26T06:05:17.946Z,7204.00
2018-04-26T06:06:17.841Z,6472.00
2018-04-26T06:07:17.742Z,5756.00
2018-04-26T06:08:17.649Z,5684.00
2018-04-26T06:09:17.545Z,5920.00
2018-04-26T06:10:17.441Z,5780.00
2018-04-26T06:11:17.368Z,4872.00
2018-04-26T06:12:17.246Z,4884.00
2018-04-26T06:13:17.143Z,6040.00
2018-04-26T06:14:17.053Z,6676.00
2018-04-26T06:15:16.952Z,6712.00
2018-04-26T06:16:16.846Z,6116.00
2018-04-26T06:17:16.755Z,5624.00
2018-04-26T06:18:16.651Z,5604.00
2018-04-26T06:19:16.550Z,5964.00
2018-04-26T06:20:16.459Z,6296.00
2018-04-26T06:21:16.360Z,6692.00
2018-04-26T06:22:16.252Z,7284.00
2018-04-26T06:23:16.160Z,7848.00
2018-04-26T06:24:16.061Z,8168.00
2018-04-26T06:25:15.967Z,7928.00
2018-04-26T06:26:15.864Z,7716.00
2018-04-26T06:27:15.769Z,7416.00
2018-04-26T06:28:15.660Z,7192.00
2018-04-26T06:29:15.566Z,7308.00
2018-04-26T06:30:15.467Z,7408.00
2018-04-26T06:31:15.359Z,7752.00
2018-04-26T06:32:15.269Z,8312.00
2018-04-26T06:33:15.166Z,9060.00
2018-04-26T06:34:15.068Z,9600.00
2018-04-26T06:35:14.971Z,9568.00
2018-04-26T06:36:14.868Z,9208.00
2018-04-26T06:37:15.065Z,8960.00
2018-04-26T06:38:14.675Z,8604.00
2018-04-26T06:39:14.576Z,8272.00
2018-04-26T06:40:14.468Z,8200.00
2018-04-26T06:41:14.376Z,8216.00
2018-04-26T06:42:14.314Z,8004.00
2018-04-26T06:43:14.182Z,7164.00
2018-04-26T06:44:14.078Z,6556.00
2018-04-26T06:45:13.975Z,5628.00
2018-04-26T06:46:13.887Z,5064.00
2018-04-26T06:47:13.780Z,4736.00
2018-04-26T06:48:13.677Z,4608.00
2018-04-26T06:49:13.589Z,4948.00
2018-04-26T06:50:13.483Z,5572.00
2018-04-26T06:51:13.392Z,5624.00
2018-04-26T06:52:13.288Z,5148.00
2018-04-26T06:53:13.186Z,5152.00
2018-04-26T06:54:13.099Z,5220.00
2018-04-26T06:55:12.992Z,5468.00
2018-04-26T06:56:12.901Z,6072.00
2018-04-26T06:57:12.813Z,6300.00
2018-04-26T06:58:12.694Z,6284.00
2018-04-26T06:59:12.605Z,6776.00
2018-04-26T07:00:12.502Z,7988.00
2018-04-26T07:01:12.410Z,9000.00
2018-04-26T07:02:12.306Z,8700.00
2018-04-26T07:03:12.206Z,8148.00
2018-04-26T07:04:12.113Z,7548.00
2018-04-26T07:05:12.010Z,6404.00
2018-04-26T07:06:11.906Z,5700.00
2018-04-26T07:07:11.814Z,5940.00
2018-04-26T07:08:11.714Z,6196.00
2018-04-26T07:09:11.613Z,5932.00
2018-04-26T07:10:11.522Z,5368.00
2018-04-26T07:11:11.415Z,4540.00
2018-04-26T07:12:11.371Z,4152.00
2018-04-26T07:13:11.220Z,4024.00
2018-04-26T07:14:11.117Z,3676.00
2018-04-26T07:15:11.026Z,3364.00
2018-04-26T07:16:10.922Z,2780.00
2018-04-26T07:17:10.820Z,2388.00
2018-04-26T07:18:10.727Z,3024.00
2018-04-26T07:19:10.627Z,4008.00
2018-04-26T07:20:10.522Z,4792.00
2018-04-26T07:21:10.431Z,5380.00
2018-04-26T07:22:10.327Z,6224.00
2018-04-26T07:23:10.236Z,7636.00
2018-04-26T07:24:10.134Z,9020.00
2018-04-26T07:25:10.029Z,9660.00
2018-04-26T07:26:09.943Z,9932.00
2018-04-26T07:27:09.836Z,10748.00
2018-04-26T07:28:09.734Z,11420.00
2018-04-26T07:29:09.641Z,11928.00
2018-04-26T07:30:09.540Z,11108.00
2018-04-26T07:31:09.434Z,8860.00
2018-04-26T07:32:09.347Z,8836.00
2018-04-26T07:33:09.240Z,12560.00
2018-04-26T07:34:09.138Z,12552.00
2018-04-26T07:35:09.060Z,14608.00
2018-04-26T07:36:08.943Z,14360.00
2018-04-26T07:37:08.839Z,14064.00
2018-04-26T07:38:08.750Z,14232.00
2018-04-26T07:39:08.647Z,11868.00
2018-04-26T07:40:08.543Z,10468.00
2018-04-26T07:41:08.452Z,10676.00
2018-04-26T07:42:08.349Z,12312.00
2018-04-26T07:43:08.258Z,14768.00
2018-04-26T07:44:08.155Z,15984.00
2018-04-26T07:45:08.053Z,17112.00
2018-04-26T07:46:07.960Z,17428.00
2018-04-26T07:47:07.857Z,18304.00
2018-04-26T07:48:07.769Z,18048.00
2018-04-26T07:49:07.669Z,17792.00
2018-04-26T07:50:07.571Z,16996.00
2018-04-26T07:51:07.468Z,16736.00
2018-04-26T07:52:07.366Z,18112.00
2018-04-26T07:53:07.303Z,17760.00
2018-04-26T07:54:07.172Z,16728.00
2018-04-26T07:55:07.079Z,16804.00
2018-04-26T07:56:06.977Z,19040.00
2018-04-26T07:57:06.887Z,21152.00
2018-04-26T07:58:06.785Z,21088.00
2018-04-26T07:59:06.691Z,19968.00
2018-04-26T08:00:06.589Z,19040.00
2018-04-26T08:01:06.498Z,18816.00
2018-04-26T08:02:06.406Z,18880.00
2018-04-26T08:03:06.303Z,19264.00
2018-04-26T08:04:06.213Z,20320.00
2018-04-26T08:05:06.110Z,20096.00
2018-04-26T08:06:06.018Z,17696.00
2018-04-26T08:07:05.915Z,16628.00
2018-04-26T08:08:05.824Z,12424.00
2018-04-26T08:09:05.722Z,13308.00
2018-04-26T08:10:05.630Z,16988.00
2018-04-26T08:11:05.540Z,18176.00
2018-04-26T08:12:05.437Z,17484.00
2018-04-26T08:13:05.345Z,21440.00
2018-04-26T08:14:05.242Z,21056.00
2018-04-26T08:15:05.152Z,24384.00
2018-04-26T08:16:05.060Z,29024.00
2018-04-26T08:17:04.957Z,25536.00
2018-04-26T08:18:04.867Z,15852.00
2018-04-26T08:19:04.766Z,8736.00
2018-04-26T08:20:04.672Z,7164.00
2018-04-26T08:21:04.583Z,6272.00
2018-04-26T08:22:04.481Z,4540.00
2018-04-26T08:23:04.387Z,3752.00
2018-04-26T08:24:04.285Z,2924.00
2018-04-26T08:25:04.244Z,3304.00
2018-04-26T08:26:04.103Z,2984.00
2018-04-26T08:27:03.998Z,3432.00
2018-04-26T08:28:03.909Z,3280.00
2018-04-26T08:29:03.820Z,3280.00
2018-04-26T08:30:03.714Z,4600.00
2018-04-26T08:31:03.626Z,7164.00
2018-04-26T08:32:03.520Z,7884.00
2018-04-26T08:33:03.429Z,6776.00
2018-04-26T08:34:03.325Z,5444.00
2018-04-26T08:35:03.224Z,5952.00
2018-04-26T08:36:03.133Z,8312.00
2018-04-26T08:37:03.029Z,11176.00
2018-04-26T08:38:02.939Z,11160.00
2018-04-26T08:39:02.835Z,9032.00
2018-04-26T08:40:02.744Z,6960.00
2018-04-26T08:41:02.641Z,5964.00
2018-04-26T08:42:02.554Z,6248.00
2018-04-26T08:43:02.449Z,7584.00
2018-04-26T08:44:02.344Z,8904.00
2018-04-26T08:45:02.253Z,8908.00
2018-04-26T08:46:02.227Z,10288.00
2018-04-26T08:47:02.058Z,8904.00
2018-04-26T08:48:01.954Z,7636.00
2018-04-26T08:49:01.857Z,6744.00
2018-04-26T08:50:01.761Z,5788.00
2018-04-26T08:51:01.661Z,4528.00
2018-04-26T08:52:01.554Z,3544.00
2018-04-26T08:53:01.462Z,5072.00
2018-04-26T08:54:01.361Z,7816.00
2018-04-26T08:55:01.257Z,9044.00
2018-04-26T08:56:01.166Z,10676.00
2018-04-26T08:57:01.064Z,8284.00
2018-04-26T08:58:00.973Z,5116.00
2018-04-26T08:59:00.869Z,5872.00
2018-04-26T09:00:00.769Z,5528.00
2018-04-26T09:01:00.674Z,4592.00
2018-04-26T09:02:00.570Z,3096.00
2018-04-26T09:03:00.468Z,2604.00
2018-04-26T09:04:00.376Z,2208.00
2018-04-26T09:05:00.272Z,2212.00
2018-04-26T09:06:00.170Z,2172.00
2018-04-26T09:07:00.067Z,2128.00
2018-04-26T09:07:59.975Z,2152.00
2018-04-26T09:08:59.872Z,2512.00
2018-04-26T09:09:59.769Z,2156.00
2018-04-26T09:10:59.666Z,2668.00
2018-04-26T09:11:59.573Z,2588.00
2018-04-26T09:12:59.471Z,3004.00
2018-04-26T09:13:59.368Z,3812.00
2018-04-26T09:14:59.263Z,3960.00
2018-04-26T09:15:59.220Z,5136.00
2018-04-26T09:16:59.070Z,6068.00
2018-04-26T09:17:58.967Z,5144.00
2018-04-26T09:18:58.868Z,7580.00
2018-04-26T09:19:58.760Z,9376.00
2018-04-26T09:20:58.657Z,8812.00
2018-04-26T09:21:58.596Z,5988.00
2018-04-26T09:22:58.462Z,4912.00
2018-04-26T09:23:58.361Z,3620.00
2018-04-26T09:24:58.256Z,5684.00
2018-04-26T09:25:58.152Z,7572.00
2018-04-26T09:26:58.049Z,6916.00
2018-04-26T09:27:57.947Z,6292.00
2018-04-26T09:28:57.855Z,7408.00
2018-04-26T09:29:57.824Z,9112.00
2018-04-26T09:30:57.649Z,10728.00
2018-04-26T09:31:57.550Z,11696.00
2018-04-26T09:32:57.443Z,12184.00
2018-04-26T09:33:57.339Z,13188.00
2018-04-26T09:34:57.242Z,14620.00
2018-04-26T09:35:57.144Z,15996.00
2018-04-26T09:36:57.040Z,17440.00
2018-04-26T09:37:56.937Z,18688.00
2018-04-26T09:38:56.835Z,21344.00
2018-04-26T09:39:56.731Z,24000.00
2018-04-26T09:40:56.628Z,30176.00
2018-04-26T09:41:56.538Z,38656.00
2018-04-26T09:42:56.434Z,42752.00
2018-04-26T09:43:56.332Z,41984.00
2018-04-26T09:44:56.229Z,41344.00
2018-04-26T09:45:56.136Z,46304.00
2018-04-26T09:46:56.033Z,55936.00
2018-04-26T09:47:55.930Z,47488.00
2018-04-26T09:48:55.829Z,38272.00
2018-04-26T09:49:55.742Z,34144.00
2018-04-26T09:50:55.633Z,29280.00
2018-04-26T09:51:55.531Z,25952.00
2018-04-26T09:52:55.441Z,30816.00
2018-04-26T09:53:55.335Z,27648.00
2018-04-26T09:54:55.232Z,26784.00
2018-04-26T09:55:55.143Z,26048.00
2018-04-26T09:56:55.039Z,27200.00
2018-04-26T09:57:54.942Z,31744.00
2018-04-26T09:58:54.843Z,57024.00
2018-04-26T09:59:54.753Z,68768.00
2018-04-26T10:00:54.650Z,75200.00
2018-04-26T10:01:54.547Z,78464.00
2018-04-26T10:02:54.456Z,67488.00
2018-04-26T10:03:54.361Z,33568.00
2018-04-26T10:04:54.262Z,25152.00
2018-04-26T10:05:54.162Z,28704.00
2018-04-26T10:06:54.066Z,58944.00
2018-04-26T10:07:53.977Z,67936.00
2018-04-26T10:08:53.911Z,34272.00
2018-04-26T10:09:53.786Z,23232.00
2018-04-26T10:10:53.677Z,36896.00
2018-04-26T10:11:53.588Z,60224.00
2018-04-26T10:12:53.496Z,46272.00
2018-04-26T10:13:53.394Z,74944.00
2018-04-26T10:14:53.303Z,53184.00
2018-04-26T10:15:53.211Z,33856.00
2018-04-26T10:16:53.151Z,70720.00
2018-04-26T10:17:53.018Z,70112.00
2018-04-26T10:18:52.938Z,75136.00
2018-04-26T10:19:52.822Z,79040.00
2018-04-26T10:20:52.733Z,74944.00
2018-04-26T10:21:52.642Z,73312.00
2018-04-26T10:22:52.551Z,76512.00
2018-04-26T10:23:52.448Z,76448.00
2018-04-26T10:24:52.356Z,76352.00
2018-04-26T10:25:52.265Z,74752.00
2018-04-26T10:26:52.174Z,66944.00
2018-04-26T10:27:52.084Z,27968.00
2018-04-26T10:28:51.993Z,23488.00
2018-04-26T10:29:51.917Z,23712.00
2018-04-26T10:30:51.810Z,60768.00
2018-04-26T10:31:51.726Z,22944.00
2018-04-26T10:32:51.629Z,18496.00
2018-04-26T10:33:51.539Z,16428.00
2018-04-26T10:34:51.448Z,22784.00
2018-04-26T10:35:51.358Z,14456.00
2018-04-26T10:36:51.266Z,93824.00
2018-04-26T10:37:51.176Z,36000.00
2018-04-26T10:38:51.089Z,15884.00
2018-04-26T10:39:50.993Z,13400.00
2018-04-26T10:40:50.907Z,17216.00
2018-04-26T10:41:50.812Z,20800.00
2018-04-26T10:42:50.708Z,20352.00
2018-04-26T10:43:50.618Z,34912.00
2018-04-26T10:44:50.531Z,89856.00
2018-04-26T10:45:50.437Z,31712.00
2018-04-26T10:46:50.345Z,27008.00
2018-04-26T10:47:50.254Z,28256.00
2018-04-26T10:48:50.165Z,38848.00
2018-04-26T10:49:50.074Z,33664.00
2018-04-26T10:50:49.982Z,163520.00
2018-04-26T10:51:49.879Z,20000.00
2018-04-26T10:52:49.787Z,24256.00
2018-04-26T10:53:49.702Z,21888.00
2018-04-26T10:54:49.606Z,34336.00
2018-04-26T10:55:49.516Z,8392.00
2018-04-26T10:56:49.424Z,6648.00
2018-04-26T10:57:49.335Z,6320.00
2018-04-26T10:58:49.242Z,8828.00
2018-04-26T10:59:49.140Z,6160.00
2018-04-26T11:00:49.050Z,4624.00
2018-04-26T11:01:48.957Z,4348.00
2018-04-26T11:02:48.868Z,5540.00
2018-04-26T11:03:48.790Z,8604.00
2018-04-26T11:04:48.674Z,9108.00
2018-04-26T11:05:48.583Z,9300.00
2018-04-26T11:06:48.499Z,41696.00
2018-04-26T11:07:48.401Z,16400.00
2018-04-26T11:08:48.298Z,102336.00
2018-04-26T11:09:48.206Z,81280.00
2018-04-26T11:10:48.117Z,9552.00
2018-04-26T11:11:48.025Z,65504.00
2018-04-26T11:12:47.922Z,58464.00
2018-04-26T11:13:47.831Z,52896.00
2018-04-26T11:14:47.740Z,52544.00
2018-04-26T11:15:47.637Z,47872.00
2018-04-26T11:16:47.547Z,38240.00
2018-04-26T11:17:47.455Z,47104.00
2018-04-26T11:18:47.365Z,60416.00
2018-04-26T11:19:47.263Z,30304.00
2018-04-26T11:20:47.184Z,23936.00
2018-04-26T11:21:47.079Z,69920.00
2018-04-26T11:22:46.977Z,104320.00
2018-04-26T11:23:46.886Z,112512.00
2018-04-26T11:24:46.800Z,87328.00
2018-04-26T11:25:46.706Z,21728.00
2018-04-26T11:26:46.614Z,14404.00
2018-04-26T11:27:46.527Z,13660.00
2018-04-26T11:28:46.420Z,12900.00
2018-04-26T11:29:46.329Z,11188.00
2018-04-26T11:30:46.241Z,11464.00
2018-04-26T11:31:46.148Z,18688.00
2018-04-26T11:32:46.060Z,10460.00
2018-04-26T11:33:45.965Z,6392.00
2018-04-26T11:34:45.875Z,5844.00
2018-04-26T11:35:45.771Z,4280.00
2018-04-26T11:36:45.680Z,2788.00
2018-04-26T11:37:45.590Z,2724.00
2018-04-26T11:38:45.499Z,2992.00
2018-04-26T11:39:45.397Z,3444.00
2018-04-26T11:40:45.305Z,3088.00
2018-04-26T11:41:45.215Z,4640.00
2018-04-26T11:42:45.123Z,7320.00
2018-04-26T11:43:45.020Z,6992.00
2018-04-26T11:44:44.930Z,7332.00
2018-04-26T11:45:44.838Z,6232.00
2018-04-26T11:46:44.813Z,6272.00
2018-04-26T11:47:44.646Z,7512.00
2018-04-26T11:48:44.553Z,10720.00
2018-04-26T11:49:44.450Z,11272.00
2018-04-26T11:50:44.360Z,12544.00
2018-04-26T11:51:44.269Z,17208.00
2018-04-26T11:52:44.166Z,22528.00
2018-04-26T11:53:44.067Z,27328.00
2018-04-26T11:54:43.972Z,24832.00
2018-04-26T11:55:43.884Z,28224.00
2018-04-26T11:56:43.777Z,21536.00
2018-04-26T11:57:43.687Z,15448.00
2018-04-26T11:58:43.584Z,11536.00
2018-04-26T11:59:43.492Z,11380.00
2018-04-26T12:00:43.403Z,12936.00
2018-04-26T12:01:43.299Z,10520.00
2018-04-26T12:02:43.359Z,8612.00
2018-04-26T12:03:43.104Z,15608.00
2018-04-26T12:04:43.014Z,21952.00
2018-04-26T12:05:42.923Z,25024.00
2018-04-26T12:06:42.821Z,28576.00
2018-04-26T12:07:42.814Z,29824.00
2018-04-26T12:08:42.627Z,26240.00
2018-04-26T12:09:42.534Z,24832.00
2018-04-26T12:10:42.435Z,22272.00
2018-04-26T12:11:42.342Z,17728.00
2018-04-26T12:12:42.250Z,15092.00
2018-04-26T12:13:42.147Z,19040.00
2018-04-26T12:14:42.056Z,19840.00
2018-04-26T12:15:41.965Z,16896.00
2018-04-26T12:16:41.861Z,16284.00
2018-04-26T12:17:41.771Z,14436.00
2018-04-26T12:18:41.680Z,14244.00
2018-04-26T12:19:41.576Z,16864.00